Time;durP1;ratioP1;P1;durP2;ratioP2;P2;SDS_P1;SDS_P2;PMS_P1;PMS_P2;Temp;Humidity;BMP_temperature;BMP_pressure;BME280_temperature;BME280_humidity;BME280_pressure;Samples;Min_cycle;Max_cycle;Signal;HPM_P1;HPM_P2
2022/12/23 00:01:28;;;;;;;;;2.33;0.00;;;;;21.25;40.73;100600.63;5034483;28;45449;-68
2022/12/23 00:03:58;;;;;;;;;1.00;1.00;;;;;21.25;40.63;100600.63;5051891;28;45379;-69
2022/12/23 00:06:24;;;;;;;;;1.00;0.00;;;;;21.20;40.64;100595.03;5054340;28;45680;-68
2022/12/23 00:08:56;;;;;;;;;0.67;0.67;;;;;21.27;40.94;100603.06;5054188;28;45378;-68
2022/12/23 00:11:22;;;;;;;;;1.00;0.00;;;;;20.90;40.61;100544.69;5054669;28;45315;-69
2022/12/23 00:16:34;;;;;;;;;1.67;0.00;;;;;21.26;40.90;100606.75;5054392;28;45467;-68
2022/12/23 00:19:00;;;;;;;;;2.00;1.00;;;;;21.25;40.84;100610.38;5054186;28;45432;-69
2022/12/23 00:21:25;;;;;;;;;0.33;0.33;;;;;21.26;40.56;100612.84;5054322;28;45280;-69
2022/12/23 00:23:51;;;;;;;;;0.00;0.00;;;;;21.27;40.60;100603.06;5054164;28;45443;-67
2022/12/23 00:26:20;;;;;;;;;1.00;0.00;;;;;21.27;40.97;100613.66;5054227;28;46096;-69
2022/12/23 00:28:45;;;;;;;;;0.00;0.00;;;;;21.16;40.55;100585.81;5054265;28;45371;-67
2022/12/23 00:31:12;;;;;;;;;0.00;0.00;;;;;21.16;40.67;100591.94;5054291;28;45363;-67
2022/12/23 00:33:44;;;;;;;;;0.00;0.00;;;;;21.27;40.50;100608.38;5054375;28;45332;-69
2022/12/23 00:36:18;;;;;;;;;0.00;0.00;;;;;21.27;40.77;100613.66;5054058;28;46281;-68
2022/12/23 00:44:11;;;;;;;;;1.00;1.00;;;;;21.27;41.00;100611.84;5054181;28;45350;-68
2022/12/23 00:46:37;;;;;;;;;0.00;0.00;;;;;21.22;40.55;100608.91;5054029;28;46065;-68
2022/12/23 00:51:46;;;;;;;;;0.00;0.00;;;;;21.26;40.91;100622.63;5053849;28;45410;-68
2022/12/23 00:54:12;;;;;;;;;1.00;0.00;;;;;21.26;41.05;100612.84;5050487;28;45426;-69
2022/12/23 00:56:37;;;;;;;;;0.00;0.00;;;;;21.26;40.90;100614.69;5033567;28;46052;-68
2022/12/23 00:59:02;;;;;;;;;0.00;0.00;;;;;21.24;40.67;100612.19;5033891;28;45474;-69
2022/12/23 01:06:57;;;;;;;;;1.00;0.00;;;;;21.25;40.75;100618.31;5053380;28;45410;-67
2022/12/23 01:09:22;;;;;;;;;0.00;0.00;;;;;21.10;41.29;100607.72;5053825;28;45472;-69
2022/12/23 01:11:48;;;;;;;;;0.00;0.00;;;;;21.25;41.04;100620.97;5053855;28;45368;-68
2022/12/23 01:14:13;;;;;;;;;0.33;0.00;;;;;21.23;40.86;100620.31;5053961;27;45273;-68
2022/12/23 01:16:39;;;;;;;;;0.00;0.00;;;;;21.18;41.00;100605.78;5053746;28;46168;-67
2022/12/23 01:19:05;;;;;;;;;0.00;0.00;;;;;21.25;41.06;100615.66;5053664;28;45335;-69
2022/12/23 01:21:31;;;;;;;;;0.00;0.00;;;;;21.23;40.93;100615.88;5053302;28;45293;-67
2022/12/23 01:23:56;;;;;;;;;0.00;0.00;;;;;21.13;40.91;100608.16;5053779;27;45440;-66
2022/12/23 01:26:22;;;;;;;;;0.00;0.00;;;;;21.16;41.00;100604.34;5053613;28;46019;-69
2022/12/23 01:28:47;;;;;;;;;0.00;0.00;;;;;21.22;40.74;100622.16;5035631;28;45300;-67
2022/12/23 01:31:13;;;;;;;;;0.00;0.00;;;;;21.23;40.73;100622.97;5035624;28;45225;-69
2022/12/23 01:33:38;;;;;;;;;0.00;0.00;;;;;21.15;40.73;100616.75;5053777;28;45363;-69
2022/12/23 01:36:08;;;;;;;;;1.00;1.00;;;;;21.23;41.17;100625.63;5053144;28;45316;-68
2022/12/23 01:38:34;;;;;;;;;0.33;0.00;;;;;21.14;41.10;100609.81;5053508;28;45331;-68
2022/12/23 01:40:59;;;;;;;;;0.00;0.00;;;;;21.20;41.02;100621.50;5053398;28;45428;-69
2022/12/23 01:43:43;;;;;;;;;0.00;0.00;;;;;21.22;40.79;100622.16;5053390;28;45328;-69
2022/12/23 01:46:08;;;;;;;;;0.00;0.00;;;;;21.22;41.06;100626.59;5053367;28;46712;-68
2022/12/23 01:48:34;;;;;;;;;0.00;0.00;;;;;21.22;41.28;100616.84;5053126;28;45364;-68
2022/12/23 01:51:07;;;;;;;;;0.00;0.00;;;;;21.20;40.98;100612.75;5053097;28;45372;-69
2022/12/23 01:53:48;;;;;;;;;0.00;0.00;;;;;21.23;41.10;100607.09;5035271;28;45456;-67
2022/12/23 01:56:18;;;;;;;;;0.00;0.00;;;;;21.25;41.01;100618.31;5013134;28;45412;-68
2022/12/23 01:58:49;;;;;;;;;0.00;0.00;;;;;21.19;40.73;100617.19;5013207;28;45342;-68
2022/12/23 02:04:03;;;;;;;;;0.00;0.00;;;;;21.25;40.84;100635.03;5048727;28;45403;-68
2022/12/23 02:09:22;;;;;;;;;0.00;0.00;;;;;21.25;40.67;100632.38;5052053;28;45313;-68
2022/12/23 02:11:59;;;;;;;;;1.00;1.00;;;;;21.26;41.03;100630.56;5052999;28;45422;-69
2022/12/23 02:17:53;;;;;;;;;1.00;0.00;;;;;21.26;41.13;100628.72;5052761;28;45327;-69
2022/12/23 02:20:37;;;;;;;;;0.00;0.00;;;;;21.27;40.95;100632.19;5037906;28;45474;-67
2022/12/23 02:23:21;;;;;;;;;0.00;0.00;;;;;21.26;40.79;100623.41;5053004;28;45459;-69
2022/12/23 02:26:15;;;;;;;;;0.00;0.00;;;;;21.27;41.00;100629.53;5052797;28;45216;-68
2022/12/23 02:29:11;;;;;;;;;0.00;0.00;;;;;21.27;40.71;100640.13;5052677;28;46083;-69
2022/12/23 02:32:00;;;;;;;;;0.00;0.00;;;;;21.26;40.86;100639.28;5052499;28;45240;-68
2022/12/23 02:34:47;;;;;;;;;1.00;0.00;;;;;21.26;40.83;100639.28;5052355;28;45462;-68
2022/12/23 02:37:15;;;;;;;;;0.00;0.00;;;;;21.26;40.94;100634.00;5052700;28;45366;-68
2022/12/23 02:39:57;;;;;;;;;0.00;0.00;;;;;21.27;41.06;100632.19;5052296;28;46410;-69
2022/12/23 02:42:32;;;;;;;;;0.00;0.00;;;;;21.20;41.21;100624.16;5052380;28;45466;-69
2022/12/23 02:45:06;;;;;;;;;0.00;0.00;;;;;21.26;41.03;100628.72;5052650;28;45311;-69
2022/12/23 02:47:38;;;;;;;;;0.00;0.00;;;;;21.26;40.64;100626.06;5052289;28;45426;-69
2022/12/23 02:50:10;;;;;;;;;0.33;0.33;;;;;21.26;41.05;100628.72;5051846;28;46264;-69
2022/12/23 02:52:38;;;;;;;;;1.00;1.00;;;;;21.17;41.08;100616.56;5052325;28;45423;-68
2022/12/23 02:55:09;;;;;;;;;0.00;0.00;;;;;21.27;40.88;100626.88;5041798;28;45544;-68
2022/12/23 02:57:41;;;;;;;;;1.67;0.00;;;;;21.27;40.95;100618.94;5032312;28;45331;-68
2022/12/23 03:00:07;;;;;;;;;0.00;0.00;;;;;21.27;41.16;100614.50;5031926;28;46196;-68
2022/12/23 03:02:36;;;;;;;;;0.00;0.00;;;;;21.26;40.83;100620.78;5037419;27;45337;-68
2022/12/23 03:05:02;;;;;;;;;0.00;0.00;;;;;21.21;41.04;100617.84;5052226;28;45304;-69
2022/12/23 03:07:42;;;;;;;;;0.00;0.00;;;;;21.26;41.01;100634.00;5052076;27;45315;-69
2022/12/23 03:10:12;;;;;;;;;1.00;0.00;;;;;21.26;40.76;100618.13;5051873;28;46447;-68
2022/12/23 03:12:57;;;;;;;;;0.00;0.00;;;;;21.27;40.83;100613.66;5052096;28;45360;-67
2022/12/23 03:15:44;;;;;;;;;0.00;0.00;;;;;21.26;40.93;100620.78;5052077;28;45710;-68
2022/12/23 03:18:46;;;;;;;;;0.00;0.00;;;;;21.27;41.10;100629.53;5051779;28;45440;-69
2022/12/23 03:21:37;;;;;;;;;0.50;0.50;;;;;21.27;40.90;100632.19;5054867;28;47062;-69
2022/12/23 03:24:41;;;;;;;;;1.67;1.00;;;;;21.25;40.98;100632.38;5037561;28;45335;-68
2022/12/23 03:27:17;;;;;;;;;0.00;0.00;;;;;21.20;41.07;100618.03;5055231;28;45428;-68
2022/12/23 03:29:56;;;;;;;;;0.00;0.00;;;;;21.27;40.79;100625.06;5054959;28;45387;-69
2022/12/23 03:32:27;;;;;;;;;0.00;0.00;;;;;21.16;41.31;100604.34;5054398;27;46845;-69
2022/12/23 03:34:58;;;;;;;;;0.00;0.00;;;;;21.17;40.93;100600.69;5054942;28;45284;-69
2022/12/23 03:37:27;;;;;;;;;0.00;0.00;;;;;21.26;41.25;100609.38;5055080;28;45279;-69
2022/12/23 03:40:07;;;;;;;;;0.00;0.00;;;;;21.18;40.95;100591.78;5054796;28;45491;-69
2022/12/23 03:42:37;;;;;;;;;1.00;0.00;;;;;21.26;40.84;100588.22;5054732;28;45368;-68
2022/12/23 03:45:08;;;;;;;;;0.00;0.00;;;;;21.21;40.95;100574.72;5054778;28;45382;-68
2022/12/23 03:47:43;;;;;;;;;0.00;0.00;;;;;21.26;40.75;100577.63;5054514;28;45351;-69
2022/12/23 03:50:11;;;;;;;;;0.67;0.00;;;;;21.23;41.03;100568.22;5054777;28;45404;-68
2022/12/23 03:53:05;;;;;;;;;0.00;0.00;;;;;21.23;40.92;100562.94;5054683;28;45419;-68
2022/12/23 03:55:37;;;;;;;;;0.00;0.00;;;;;21.24;41.02;100579.63;5040307;28;45385;-68
2022/12/23 03:58:20;;;;;;;;;0.00;0.00;;;;;21.23;41.04;100570.06;5034743;28;45377;-68
2022/12/23 04:01:11;;;;;;;;;0.00;0.00;;;;;21.26;40.91;100577.63;5034040;28;45306;-68
2022/12/23 04:04:18;;;;;;;;;0.00;0.00;;;;;21.25;41.33;100586.56;5049104;28;45438;-69
2022/12/23 04:07:20;;;;;;;;;0.00;0.00;;;;;21.26;40.96;100577.63;4953441;28;45572;-69
2022/12/23 04:09:47;;;;;;;;;3.33;0.00;;;;;21.17;41.23;100571.59;4953471;28;45390;-69
2022/12/23 04:12:13;;;;;;;;;3.00;0.67;;;;;21.25;41.42;100576.81;4953494;28;45702;-68
2022/12/23 04:14:45;;;;;;;;;0.00;0.00;;;;;21.26;41.41;100594.31;4953169;28;46964;-69
2022/12/23 04:17:11;;;;;;;;;1.00;0.00;;;;;21.27;41.08;100595.13;4953206;28;45510;-68
2022/12/23 04:19:36;;;;;;;;;0.33;0.33;;;;;21.26;41.37;100591.66;4952987;28;45422;-68
2022/12/23 04:22:02;;;;;;;;;0.67;0.00;;;;;21.27;40.86;100574.78;4953515;28;45468;-68
2022/12/23 04:24:27;;;;;;;;;0.00;0.00;;;;;21.28;41.37;100571.16;4953267;28;46008;-69
2022/12/23 04:26:52;;;;;;;;;1.00;0.00;;;;;21.28;40.89;100563.22;4953128;28;45338;-69
2022/12/23 04:29:18;;;;;;;;;0.00;0.00;;;;;21.23;41.29;100549.72;4953159;28;45295;-69
2022/12/23 04:31:43;;;;;;;;;0.00;0.00;;;;;21.22;41.16;100540.13;4952599;28;45420;-69
2022/12/23 04:34:08;;;;;;;;;1.33;0.00;;;;;21.29;41.54;100556.91;4953119;28;45325;-68
2022/12/23 04:36:34;;;;;;;;;1.00;0.00;;;;;21.15;41.10;100532.09;4952753;28;45393;-70
2022/12/23 04:38:59;;;;;;;;;0.00;0.00;;;;;21.29;41.16;100554.25;4953252;28;45373;-68
2022/12/23 04:41:24;;;;;;;;;0.00;0.00;;;;;21.25;40.95;100554.81;5032809;28;45618;-69
2022/12/23 04:43:50;;;;;;;;;0.00;0.00;;;;;21.29;41.01;100553.44;5053653;28;46081;-68
2022/12/23 04:46:15;;;;;;;;;0.00;0.00;;;;;21.28;41.31;100536.75;5054020;28;45352;-68
2022/12/23 04:48:40;;;;;;;;;0.00;0.00;;;;;21.25;41.12;100523.88;5054348;28;45345;-68
2022/12/23 04:51:06;;;;;;;;;0.33;0.33;;;;;21.31;41.34;100532.09;5054075;28;45350;-68
2022/12/23 04:53:31;;;;;;;;;0.00;0.00;;;;;21.30;41.29;100523.34;5053989;28;46322;-68
2022/12/23 04:55:56;;;;;;;;;0.00;0.00;;;;;21.30;41.09;100528.63;5036081;28;45407;-69
2022/12/23 04:58:23;;;;;;;;;0.00;0.00;;;;;21.29;41.00;100534.91;5033470;28;46260;-69
2022/12/23 05:00:58;;;;;;;;;1.00;0.00;;;;;21.02;41.46;100498.34;5033872;28;45332;-69
2022/12/23 05:03:24;;;;;;;;;0.00;0.00;;;;;21.29;41.05;100522.50;5030031;28;46278;-68
2022/12/23 05:05:49;;;;;;;;;1.00;0.00;;;;;21.29;41.14;100517.22;5053701;28;46080;-69
2022/12/23 05:08:14;;;;;;;;;1.67;0.00;;;;;21.29;41.29;100514.56;5053817;28;45364;-69
2022/12/23 05:10:40;;;;;;;;;0.00;0.00;;;;;21.29;41.06;100514.56;5054005;28;45268;-69
2022/12/23 05:13:05;;;;;;;;;0.33;0.33;;;;;21.29;40.93;100511.91;5053371;28;47414;-69
2022/12/23 05:15:31;;;;;;;;;0.00;0.00;;;;;21.27;41.36;100492.75;5053781;28;45357;-69
2022/12/23 05:17:57;;;;;;;;;0.00;0.00;;;;;21.29;41.30;100496.03;5053956;28;45351;-68
2022/12/23 05:20:22;;;;;;;;;0.00;0.00;;;;;21.29;41.19;100501.34;5053873;28;45389;-68
2022/12/23 05:22:47;;;;;;;;;1.00;1.00;;;;;21.27;41.30;100495.41;5053585;28;46226;-69
2022/12/23 05:25:13;;;;;;;;;0.00;0.00;;;;;21.29;41.09;100497.88;5053853;28;45452;-69
2022/12/23 05:27:38;;;;;;;;;0.00;0.00;;;;;21.28;41.00;100494.41;5053517;28;45860;-69
2022/12/23 05:30:04;;;;;;;;;0.00;0.00;;;;;21.28;41.45;100489.13;5053680;28;45279;-69
2022/12/23 05:32:30;;;;;;;;;2.00;0.00;;;;;21.24;41.08;100479.06;5053389;28;45992;-69
2022/12/23 05:34:55;;;;;;;;;0.00;0.00;;;;;21.28;41.31;100486.47;5053457;28;45341;-69
2022/12/23 05:37:20;;;;;;;;;1.00;0.00;;;;;21.29;41.47;100488.09;5053625;28;45313;-68
2022/12/23 05:39:45;;;;;;;;;0.00;0.00;;;;;21.23;41.01;100464.22;5053502;28;45364;-68
2022/12/23 05:42:11;;;;;;;;;0.00;0.00;;;;;21.28;41.30;100485.66;5052354;28;45380;-68
2022/12/23 05:44:36;;;;;;;;;0.33;0.33;;;;;21.26;41.26;100483.19;5052569;28;45397;-69
2022/12/23 05:47:01;;;;;;;;;0.00;0.00;;;;;21.29;41.23;100484.63;5053526;28;45308;-68
2022/12/23 05:49:27;;;;;;;;;0.00;0.00;;;;;21.26;41.17;100474.44;5053334;28;45499;-69
2022/12/23 05:51:52;;;;;;;;;0.00;0.00;;;;;21.26;41.14;100469.94;5053292;28;46091;-69
2022/12/23 05:54:17;;;;;;;;;0.00;0.00;;;;;21.27;41.12;100466.31;5049202;27;45307;-68
2022/12/23 05:56:43;;;;;;;;;0.00;0.00;;;;;21.27;41.47;100457.53;5032815;28;45255;-68
2022/12/23 05:59:08;;;;;;;;;0.00;0.00;;;;;21.25;41.54;100459.56;5033198;28;45449;-68
2022/12/23 06:01:33;;;;;;;;;0.00;0.00;;;;;21.27;41.42;100454.91;5032634;28;45349;-68
2022/12/23 06:03:59;;;;;;;;;0.00;0.00;;;;;21.26;41.47;100459.38;5050974;28;45286;-68
2022/12/23 06:06:24;;;;;;;;;0.00;0.00;;;;;21.26;41.13;100456.72;5053326;28;45358;-69
2022/12/23 06:08:49;;;;;;;;;0.00;0.00;;;;;21.25;41.38;100435.75;5053140;28;45326;-68
2022/12/23 06:11:15;;;;;;;;;1.33;0.33;;;;;21.17;41.39;100421.63;5052635;28;45352;-68
2022/12/23 06:13:40;;;;;;;;;0.00;0.00;;;;;21.27;41.23;100428.44;5034907;28;46750;-69
2022/12/23 06:16:05;;;;;;;;;0.33;0.00;;;;;21.21;41.49;100408.81;5053107;28;45484;-68
2022/12/23 06:18:31;;;;;;;;;2.00;0.00;;;;;21.27;41.37;100409.91;5052986;28;45424;-68
2022/12/23 06:20:56;;;;;;;;;0.67;0.67;;;;;21.29;41.19;100416.66;5052551;28;46172;-68
2022/12/23 06:23:21;;;;;;;;;0.00;0.00;;;;;21.30;41.54;100412.19;5052789;28;45323;-68
2022/12/23 06:25:47;;;;;;;;;0.33;0.33;;;;;21.29;41.42;100406.06;5034505;28;45332;-69
2022/12/23 06:28:12;;;;;;;;;0.00;0.00;;;;;21.29;41.28;100413.19;5052861;28;45378;-68
2022/12/23 06:30:37;;;;;;;;;0.00;0.00;;;;;21.29;41.17;100413.19;5052709;28;45460;-68
2022/12/23 06:33:03;;;;;;;;;3.00;1.33;;;;;21.27;40.96;100402.81;5052651;28;45323;-69
2022/12/23 06:35:28;;;;;;;;;0.00;0.00;;;;;21.31;41.04;100411.19;5052832;28;45419;-69
2022/12/23 06:37:53;;;;;;;;;0.33;0.33;;;;;21.31;41.00;100402.44;5052775;28;45376;-69
2022/12/23 06:40:19;;;;;;;;;0.00;0.00;;;;;21.31;41.36;100394.50;5052068;28;46220;-68
2022/12/23 06:42:44;;;;;;;;;0.00;0.00;;;;;21.32;41.46;100394.31;5052568;28;45496;-68
2022/12/23 06:45:09;;;;;;;;;0.00;0.00;;;;;21.31;41.31;100399.78;5052498;28;45482;-69
2022/12/23 06:47:35;;;;;;;;;0.00;0.00;;;;;21.31;41.47;100400.63;5052574;28;45390;-68
2022/12/23 06:50:00;;;;;;;;;1.00;0.00;;;;;21.32;41.56;100406.72;5052556;27;45454;-69
2022/12/23 06:52:25;;;;;;;;;1.33;0.00;;;;;21.29;41.27;100392.84;5052389;28;45403;-68
2022/12/23 06:54:51;;;;;;;;;0.00;0.00;;;;;21.31;41.20;100392.69;5044796;28;45353;-68
2022/12/23 06:57:16;;;;;;;;;0.00;0.00;;;;;21.33;41.33;100384.53;5035441;28;45300;-68
2022/12/23 06:59:41;;;;;;;;;0.00;0.00;;;;;21.32;41.12;100372.31;5035133;28;45393;-68
2022/12/23 07:02:09;;;;;;;;;0.33;0.33;;;;;21.32;41.44;100362.53;5037259;28;45358;-69
2022/12/23 07:04:35;;;;;;;;;0.00;0.00;;;;;21.32;40.92;100351.97;5055575;28;45341;-68
2022/12/23 07:07:00;;;;;;;;;0.00;0.00;;;;;21.31;41.22;100354.81;5055241;28;45260;-69
2022/12/23 07:09:25;;;;;;;;;0.00;0.00;;;;;21.32;41.49;100353.78;5054835;28;46469;-69
2022/12/23 07:11:51;;;;;;;;;0.00;0.00;;;;;21.31;41.54;100350.34;5055353;28;45280;-68
2022/12/23 07:14:16;;;;;;;;;0.00;0.00;;;;;21.29;41.31;100344.41;5055306;28;45389;-68
2022/12/23 07:16:41;;;;;;;;;0.00;0.00;;;;;21.31;41.11;100331.81;5055363;28;45355;-68
2022/12/23 07:19:07;;;;;;;;;1.00;0.00;;;;;21.31;41.11;100333.63;5055093;28;47238;-69
2022/12/23 07:21:33;;;;;;;;;0.00;0.00;;;;;21.31;41.45;100328.34;5054999;28;45367;-69
2022/12/23 07:23:58;;;;;;;;;0.00;0.00;;;;;21.31;41.30;100312.47;5054952;28;45287;-69
2022/12/23 07:26:24;;;;;;;;;0.00;0.00;;;;;21.31;41.31;100326.53;5055061;28;45250;-69
2022/12/23 07:28:49;;;;;;;;;0.00;0.00;;;;;21.15;41.77;100287.91;5055015;28;46936;-69
2022/12/23 07:31:15;;;;;;;;;0.00;0.00;;;;;21.32;41.18;100316.75;5054999;28;45300;-69
2022/12/23 07:33:41;;;;;;;;;1.00;0.00;;;;;21.27;41.41;100309.38;5055131;28;45357;-69
2022/12/23 07:36:07;;;;;;;;;0.00;0.00;;;;;21.31;41.19;100302.72;5055237;28;45358;-69
2022/12/23 07:38:32;;;;;;;;;0.00;0.00;;;;;21.27;41.36;100310.19;5054392;28;46010;-68
2022/12/23 07:40:57;;;;;;;;;0.00;0.00;;;;;21.30;41.58;100327.53;5054680;28;45486;-68
2022/12/23 07:43:23;;;;;;;;;0.00;0.00;;;;;21.30;41.51;100319.59;5055144;28;45367;-68
2022/12/23 07:45:48;;;;;;;;;0.00;0.00;;;;;21.26;41.30;100319.13;5054908;28;45410;-68
2022/12/23 07:48:14;;;;;;;;;0.67;0.67;;;;;21.20;41.48;100301.38;5054770;28;47056;-69
2022/12/23 07:50:40;;;;;;;;;0.00;0.00;;;;;21.26;41.68;100311.19;5054723;28;45280;-69
2022/12/23 07:53:05;;;;;;;;;1.33;0.00;;;;;21.29;41.38;100326.69;5054451;28;45314;-68
2022/12/23 07:55:30;;;;;;;;;0.00;0.00;;;;;21.29;41.31;100310.00;5040430;28;45414;-69
2022/12/23 07:57:55;;;;;;;;;0.00;0.00;;;;;21.14;41.92;100287.06;5034521;28;47221;-69
2022/12/23 08:00:21;;;;;;;;;0.00;0.00;;;;;21.28;41.24;100305.72;5034431;28;45570;-69
2022/12/23 08:02:47;;;;;;;;;0.00;0.00;;;;;21.28;41.55;100298.63;5042176;28;45455;-69
2022/12/23 08:05:13;;;;;;;;;1.00;0.33;;;;;21.18;41.22;100264.50;5054394;28;45299;-67
2022/12/23 08:07:39;;;;;;;;;0.00;0.00;;;;;21.27;41.21;100273.16;5053418;28;46336;-69
2022/12/23 08:10:05;;;;;;;;;0.00;0.00;;;;;21.15;41.30;100266.72;5054440;28;45359;-68
2022/12/23 08:12:31;;;;;;;;;0.00;0.00;;;;;21.28;41.45;100281.91;5054595;28;45403;-69
2022/12/23 08:14:57;;;;;;;;;1.00;0.00;;;;;21.28;41.53;100277.44;5054439;28;45286;-69
2022/12/23 08:17:26;;;;;;;;;2.00;0.00;;;;;21.28;41.09;100295.97;5054414;28;46456;-67
2022/12/23 08:19:51;;;;;;;;;1.00;0.00;;;;;21.29;41.30;100299.41;5054247;28;45451;-68
2022/12/23 08:22:16;;;;;;;;;0.00;0.00;;;;;21.28;41.44;100287.22;5054033;28;45553;-67
2022/12/23 08:24:42;;;;;;;;;0.00;0.00;;;;;21.30;41.37;100266.66;5054405;28;45726;-68
2022/12/23 08:27:07;;;;;;;;;0.00;0.00;;;;;21.25;41.26;100261.94;5054204;28;47121;-69
2022/12/23 08:29:32;;;;;;;;;0.00;0.00;;;;;21.31;41.51;100273.59;5054240;28;45405;-69
2022/12/23 08:31:58;;;;;;;;;0.00;0.00;;;;;21.32;41.45;100269.94;5054494;28;45418;-69
2022/12/23 08:34:23;;;;;;;;;0.33;0.33;;;;;21.33;41.08;100273.41;5054686;28;45341;-69
2022/12/23 08:36:49;;;;;;;;;0.00;0.00;;;;;21.33;41.21;100284.00;5053851;28;45446;-69
2022/12/23 08:39:14;;;;;;;;;0.00;0.00;;;;;21.31;41.42;100278.91;5054250;28;45328;-69
2022/12/23 08:41:43;;;;;;;;;1.00;1.00;;;;;21.33;41.20;100286.63;5054139;28;45371;-69
2022/12/23 08:44:09;;;;;;;;;0.00;0.00;;;;;21.34;41.68;100289.09;5054135;28;45332;-68
2022/12/23 08:46:35;;;;;;;;;0.00;0.00;;;;;21.34;41.44;100293.59;5054020;28;46305;-68
2022/12/23 08:49:00;;;;;;;;;1.33;1.33;;;;;21.34;41.33;100290.94;5054112;28;45346;-68
2022/12/23 08:51:27;;;;;;;;;1.00;1.00;;;;;21.33;41.54;100286.63;5053735;28;45595;-69
2022/12/23 08:53:57;;;;;;;;;0.00;0.00;;;;;21.34;41.34;100288.28;5053613;28;45392;-68
2022/12/23 08:56:25;;;;;;;;;0.00;0.00;;;;;21.34;41.76;100294.38;5033695;28;46208;-69
2022/12/23 08:58:52;;;;;;;;;0.00;0.00;;;;;21.34;41.03;100289.09;5033832;28;45375;-68
2022/12/23 09:01:20;;;;;;;;;0.00;0.00;;;;;21.34;41.27;100286.44;5033584;28;45356;-68
2022/12/23 09:03:46;;;;;;;;;2.00;0.00;;;;;21.31;41.45;100275.44;5049826;28;45292;-68
2022/12/23 09:06:17;;;;;;;;;0.00;0.00;;;;;21.34;41.44;100285.66;5053417;28;46142;-69
2022/12/23 09:08:43;;;;;;;;;0.00;0.00;;;;;21.24;41.62;100265.59;5053798;28;45373;-69
2022/12/23 09:11:10;;;;;;;;;0.00;0.00;;;;;21.34;41.80;100283.78;5053841;28;45289;-69
2022/12/23 09:13:36;;;;;;;;;0.00;0.00;;;;;21.35;41.38;100292.56;5053769;28;45344;-69
2022/12/23 09:16:02;;;;;;;;;0.00;0.00;;;;;21.34;41.44;100283.78;5053651;28;45489;-69
2022/12/23 09:18:27;;;;;;;;;1.67;0.00;;;;;21.34;41.59;100285.66;5053587;28;45396;-69
2022/12/23 09:21:00;;;;;;;;;0.00;0.00;;;;;21.33;41.81;100289.28;5053320;28;45295;-69
2022/12/23 09:23:26;;;;;;;;;0.00;0.00;;;;;21.35;41.64;100297.84;5053853;28;45319;-69
2022/12/23 09:25:52;;;;;;;;;0.00;0.00;;;;;21.34;41.71;100290.94;5053533;28;45385;-69
2022/12/23 09:28:17;;;;;;;;;0.00;0.00;;;;;21.34;41.74;100296.22;5052717;28;45508;-69
2022/12/23 09:30:43;;;;;;;;;0.00;0.00;;;;;21.34;41.64;100293.59;5053651;28;45308;-68
2022/12/23 09:33:08;;;;;;;;;0.00;0.00;;;;;21.34;41.19;100291.72;5053563;28;45434;-68
2022/12/23 09:35:33;;;;;;;;;0.00;0.00;;;;;21.34;41.74;100293.59;5053120;28;46032;-69
2022/12/23 09:37:59;;;;;;;;;0.00;0.00;;;;;21.33;41.81;100286.63;5053528;28;45312;-69
2022/12/23 09:40:28;;;;;;;;;0.67;0.67;;;;;21.34;41.56;100283.00;5053447;28;45677;-69
2022/12/23 09:42:56;;;;;;;;;1.00;0.00;;;;;21.32;41.45;100280.53;5053527;28;45398;-69
2022/12/23 09:45:43;;;;;;;;;0.00;0.00;;;;;21.33;41.51;100279.53;5053256;28;45232;-69
2022/12/23 09:48:14;;;;;;;;;0.33;0.00;;;;;21.30;41.58;100279.91;5053369;28;45293;-69
2022/12/23 09:50:40;;;;;;;;;0.00;0.00;;;;;21.32;41.37;100283.16;5053175;28;45283;-69
2022/12/23 09:53:11;;;;;;;;;0.00;0.00;;;;;21.33;41.42;100255.72;5053398;28;45365;-69
2022/12/23 09:56:05;;;;;;;;;0.00;0.00;;;;;21.33;41.53;100268.94;5038001;28;45474;-69
2022/12/23 09:58:39;;;;;;;;;0.00;0.00;;;;;21.33;41.42;100252.25;5032797;28;45223;-69
2022/12/23 10:01:17;;;;;;;;;0.00;0.00;;;;;21.32;42.04;100253.22;5032863;27;45389;-68
2022/12/23 10:04:29;;;;;;;;;0.00;0.00;;;;;21.32;41.79;100247.94;5048046;27;45312;-69
2022/12/23 10:07:05;;;;;;;;;0.00;0.00;;;;;21.31;41.59;100263.03;4951719;28;46296;-68
2022/12/23 10:09:40;;;;;;;;;0.00;0.00;;;;;21.21;42.00;100231.56;4951516;28;45451;-69
2022/12/23 10:12:31;;;;;;;;;0.00;0.00;;;;;21.32;41.61;100251.41;4952015;28;45354;-68
2022/12/23 10:15:01;;;;;;;;;0.00;0.00;;;;;21.15;41.31;100230.53;4951747;28;45414;-69
2022/12/23 10:17:38;;;;;;;;;0.00;0.00;;;;;21.31;41.59;100259.56;4951554;28;45464;-69
2022/12/23 10:20:09;;;;;;;;;0.00;0.00;;;;;21.31;41.74;100262.19;4951977;28;45406;-69
2022/12/23 10:22:43;;;;;;;;;1.00;1.00;;;;;21.23;41.44;100250.75;4951744;28;45373;-69
2022/12/23 10:25:21;;;;;;;;;0.00;0.00;;;;;21.15;41.85;100238.47;4951789;28;45310;-69
2022/12/23 10:27:47;;;;;;;;;0.00;0.00;;;;;21.31;41.54;100270.97;4951787;28;46088;-69
2022/12/23 10:30:16;;;;;;;;;2.00;0.00;;;;;21.32;41.76;100271.75;4950616;28;45336;-69
2022/12/23 10:33:04;;;;;;;;;0.00;0.00;;;;;21.33;41.59;100273.41;4951606;28;45463;-69
2022/12/23 10:35:44;;;;;;;;;0.00;0.00;;;;;21.33;41.84;100266.28;4951612;28;45397;-69
2022/12/23 10:38:35;;;;;;;;;0.00;0.00;;;;;21.34;41.76;100275.84;4951595;28;46079;-69
2022/12/23 10:41:28;;;;;;;;;0.67;0.67;;;;;21.34;41.63;100261.81;4951469;28;45370;-69
2022/12/23 10:44:15;;;;;;;;;0.00;0.00;;;;;21.34;41.76;100253.88;5052641;28;45373;-69
2022/12/23 10:46:59;;;;;;;;;0.00;0.00;;;;;21.35;41.39;100266.91;5052262;28;45555;-68
2022/12/23 10:49:47;;;;;;;;;0.00;0.00;;;;;21.34;41.70;100259.97;5052210;28;46349;-68
2022/12/23 10:52:24;;;;;;;;;0.00;0.00;;;;;21.36;41.32;100273.03;5052303;28;45297;-68
2022/12/23 10:54:50;;;;;;;;;0.00;0.00;;;;;21.35;41.66;100263.44;5043786;28;45347;-68
2022/12/23 10:57:17;;;;;;;;;1.00;0.00;;;;;21.36;41.33;100260.63;5032212;28;45508;-69
2022/12/23 10:59:43;;;;;;;;;0.00;0.00;;;;;21.37;41.81;100258.78;5032091;28;46232;-69
2022/12/23 11:02:44;;;;;;;;;0.00;0.00;;;;;21.36;41.73;100252.69;5033861;28;45260;-69
2022/12/23 11:05:17;;;;;;;;;0.00;0.00;;;;;21.37;41.73;100256.94;5052523;28;45351;-69
2022/12/23 11:07:44;;;;;;;;;0.00;0.00;;;;;21.37;41.49;100262.25;5052284;28;45352;-68
2022/12/23 11:10:21;;;;;;;;;0.00;0.00;;;;;21.36;41.83;100263.28;5051829;28;47165;-68
2022/12/23 11:12:48;;;;;;;;;0.00;0.00;;;;;21.37;41.75;100259.59;5052156;28;45395;-68
2022/12/23 11:15:33;;;;;;;;;0.00;0.00;;;;;21.38;41.24;100265.72;5052095;28;45440;-69
2022/12/23 11:18:06;;;;;;;;;1.00;0.00;;;;;21.38;41.48;100260.44;5051987;28;45357;-69
2022/12/23 11:20:33;;;;;;;;;0.00;0.00;;;;;21.38;41.94;100268.38;5051791;28;46347;-69
2022/12/23 11:23:01;;;;;;;;;0.00;0.00;;;;;21.36;41.75;100281.78;5051982;28;45327;-69
2022/12/23 11:25:41;;;;;;;;;0.00;0.00;;;;;21.37;41.58;100290.53;5052180;28;45434;-69
2022/12/23 11:28:09;;;;;;;;;0.00;0.00;;;;;21.35;41.81;100280.16;5052067;28;45802;-69
2022/12/23 11:30:46;;;;;;;;;0.00;0.00;;;;;21.36;41.57;100297.69;5051413;28;46356;-69
2022/12/23 11:33:34;;;;;;;;;0.33;0.00;;;;;21.36;41.61;100300.31;5051727;28;45546;-69
2022/12/23 11:36:02;;;;;;;;;0.67;0.67;;;;;21.36;41.55;100283.63;5051908;28;45306;-69
2022/12/23 11:38:28;;;;;;;;;0.00;0.00;;;;;21.24;41.80;100278.81;5051849;28;45290;-69
2022/12/23 11:40:53;;;;;;;;;0.00;0.00;;;;;21.36;41.46;100297.69;5051582;28;45355;-68
2022/12/23 11:43:20;;;;;;;;;0.00;0.00;;;;;21.36;41.89;100289.72;5054877;28;45462;-69
2022/12/23 11:45:46;;;;;;;;;0.33;0.00;;;;;21.35;41.98;100306.59;5036621;28;45421;-69
2022/12/23 11:48:29;;;;;;;;;0.00;0.00;;;;;21.30;41.58;100290.47;5036975;28;45533;-69
2022/12/23 11:51:02;;;;;;;;;0.00;0.00;;;;;21.36;42.08;100308.25;5054642;28;46353;-69
2022/12/23 11:53:28;;;;;;;;;0.00;0.00;;;;;21.37;41.90;100314.34;5054846;28;45236;-69
2022/12/23 11:56:10;;;;;;;;;0.00;0.00;;;;;21.36;41.89;100304.78;5037373;28;45374;-69
2022/12/23 11:58:52;;;;;;;;;0.00;0.00;;;;;21.35;41.92;100314.56;5034732;28;45337;-69
2022/12/23 12:01:21;;;;;;;;;0.00;0.00;;;;;21.35;41.99;100322.50;5034385;27;45357;-69
2022/12/23 12:03:52;;;;;;;;;0.00;0.00;;;;;21.27;41.24;100307.56;5050515;28;45332;-69